sensor_id;sensor_type;location;lat;lon;timestamp;pressure;altitude;pressure_sealevel;temperature;humidity
35989;BME280;22064;42.672;23.282;2022-07-06T00:01:22;94680.34;;;18.72;100.00
35989;BME280;22064;42.672;23.282;2022-07-06T00:03:48;94671.16;;;18.69;100.00
35989;BME280;22064;42.672;23.282;2022-07-06T00:06:14;94661.25;;;18.47;100.00
35989;BME280;22064;42.672;23.282;2022-07-06T00:08:39;94675.72;;;18.50;100.00
35989;BME280;22064;42.672;23.282;2022-07-06T00:11:05;94687.16;;;18.45;100.00
35989;BME280;22064;42.672;23.282;2022-07-06T00:13:31;94704.69;;;18.36;100.00
35989;BME280;22064;42.672;23.282;2022-07-06T00:15:57;94717.34;;;18.20;100.00
35989;BME280;22064;42.672;23.282;2022-07-06T00:18:22;94726.03;;;18.02;100.00
35989;BME280;22064;42.672;23.282;2022-07-06T00:20:48;94749.03;;;17.96;100.00
35989;BME280;22064;42.672;23.282;2022-07-06T00:23:14;94745.69;;;17.90;100.00
35989;BME280;22064;42.672;23.282;2022-07-06T00:25:39;94767.53;;;17.91;100.00
35989;BME280;22064;42.672;23.282;2022-07-06T00:28:05;94762.25;;;17.91;100.00
35989;BME280;22064;42.672;23.282;2022-07-06T00:30:31;94776.34;;;17.81;100.00
35989;BME280;22064;42.672;23.282;2022-07-06T00:32:56;94786.22;;;17.70;100.00
35989;BME280;22064;42.672;23.282;2022-07-06T00:35:24;94784.41;;;17.66;100.00
35989;BME280;22064;42.672;23.282;2022-07-06T00:37:50;94789.38;;;17.48;100.00
35989;BME280;22064;42.672;23.282;2022-07-06T00:40:16;94792.09;;;17.38;100.00
35989;BME280;22064;42.672;23.282;2022-07-06T00:42:44;94788.31;;;17.49;100.00
35989;BME280;22064;42.672;23.282;2022-07-06T00:45:11;94798.41;;;17.42;100.00
35989;BME280;22064;42.672;23.282;2022-07-06T00:47:37;94795.31;;;17.35;100.00
35989;BME280;22064;42.672;23.282;2022-07-06T00:50:07;94802.06;;;17.41;100.00
35989;BME280;22064;42.672;23.282;2022-07-06T00:52:56;94781.75;;;17.47;100.00
35989;BME280;22064;42.672;23.282;2022-07-06T00:55:26;94767.53;;;17.48;100.00
35989;BME280;22064;42.672;23.282;2022-07-06T00:57:52;94772.00;;;17.47;100.00
35989;BME280;22064;42.672;23.282;2022-07-06T01:00:21;94772.72;;;17.53;100.00
35989;BME280;22064;42.672;23.282;2022-07-06T01:02:47;94746.69;;;17.51;100.00
35989;BME280;22064;42.672;23.282;2022-07-06T01:05:14;94742.78;;;17.49;100.00
35989;BME280;22064;42.672;23.282;2022-07-06T01:07:41;94726.03;;;17.40;100.00
35989;BME280;22064;42.672;23.282;2022-07-06T01:10:10;94734.44;;;17.42;100.00
35989;BME280;22064;42.672;23.282;2022-07-06T01:12:37;94738.69;;;17.38;100.00
35989;BME280;22064;42.672;23.282;2022-07-06T01:15:05;94742.66;;;17.35;100.00
35989;BME280;22064;42.672;23.282;2022-07-06T01:17:32;94746.16;;;17.30;100.00
35989;BME280;22064;42.672;23.282;2022-07-06T01:19:58;94745.38;;;17.30;100.00
35989;BME280;22064;42.672;23.282;2022-07-06T01:22:24;94733.91;;;17.21;100.00
35989;BME280;22064;42.672;23.282;2022-07-06T01:24:49;94751.97;;;17.27;100.00
35989;BME280;22064;42.672;23.282;2022-07-06T01:27:15;94748.41;;;17.18;100.00
35989;BME280;22064;42.672;23.282;2022-07-06T01:29:41;94745.31;;;17.11;100.00
35989;BME280;22064;42.672;23.282;2022-07-06T01:32:06;94748.94;;;17.15;100.00
35989;BME280;22064;42.672;23.282;2022-07-06T01:34:32;94755.78;;;17.16;100.00
35989;BME280;22064;42.672;23.282;2022-07-06T01:36:59;94756.34;;;17.13;100.00
35989;BME280;22064;42.672;23.282;2022-07-06T01:39:25;94751.06;;;17.13;100.00
35989;BME280;22064;42.672;23.282;2022-07-06T01:41:50;94757.41;;;17.12;100.00
35989;BME280;22064;42.672;23.282;2022-07-06T01:44:16;94753.25;;;17.06;100.00
35989;BME280;22064;42.672;23.282;2022-07-06T01:46:42;94749.00;;;17.10;100.00
35989;BME280;22064;42.672;23.282;2022-07-06T01:49:08;94755.88;;;17.06;100.00
35989;BME280;22064;42.672;23.282;2022-07-06T01:51:34;94746.03;;;16.93;100.00
35989;BME280;22064;42.672;23.282;2022-07-06T01:53:59;94760.19;;;16.97;100.00
35989;BME280;22064;42.672;23.282;2022-07-06T01:56:25;94762.59;;;16.93;100.00
35989;BME280;22064;42.672;23.282;2022-07-06T01:58:56;94767.53;;;17.00;100.00
35989;BME280;22064;42.672;23.282;2022-07-06T02:01:23;94773.13;;;16.93;100.00
35989;BME280;22064;42.672;23.282;2022-07-06T02:03:49;94768.84;;;16.97;100.00
35989;BME280;22064;42.672;23.282;2022-07-06T02:06:15;94752.06;;;16.93;100.00
35989;BME280;22064;42.672;23.282;2022-07-06T02:08:42;94748.78;;;16.82;100.00
35989;BME280;22064;42.672;23.282;2022-07-06T02:11:09;94750.94;;;16.75;100.00
35989;BME280;22064;42.672;23.282;2022-07-06T02:13:38;94745.91;;;16.79;100.00
35989;BME280;22064;42.672;23.282;2022-07-06T02:16:05;94732.25;;;16.72;100.00
35989;BME280;22064;42.672;23.282;2022-07-06T02:18:31;94724.63;;;16.75;100.00
35989;BME280;22064;42.672;23.282;2022-07-06T02:20:57;94726.22;;;16.76;100.00
35989;BME280;22064;42.672;23.282;2022-07-06T02:23:22;94715.06;;;16.84;100.00
35989;BME280;22064;42.672;23.282;2022-07-06T02:25:50;94707.69;;;16.87;100.00
35989;BME280;22064;42.672;23.282;2022-07-06T02:28:16;94702.09;;;16.93;100.00
35989;BME280;22064;42.672;23.282;2022-07-06T02:30:42;94694.50;;;16.92;100.00
35989;BME280;22064;42.672;23.282;2022-07-06T02:33:09;94687.31;;;16.97;100.00
35989;BME280;22064;42.672;23.282;2022-07-06T02:35:36;94687.56;;;17.01;100.00
35989;BME280;22064;42.672;23.282;2022-07-06T02:38:07;94680.72;;;17.00;100.00
35989;BME280;22064;42.672;23.282;2022-07-06T02:40:33;94683.34;;;17.00;100.00
35989;BME280;22064;42.672;23.282;2022-07-06T02:42:58;94676.09;;;16.92;100.00
35989;BME280;22064;42.672;23.282;2022-07-06T02:45:24;94676.31;;;16.95;100.00
35989;BME280;22064;42.672;23.282;2022-07-06T02:47:50;94674.41;;;17.01;100.00
35989;BME280;22064;42.672;23.282;2022-07-06T02:50:17;94677.03;;;17.01;100.00
35989;BME280;22064;42.672;23.282;2022-07-06T02:52:42;94664.50;;;16.93;100.00
35989;BME280;22064;42.672;23.282;2022-07-06T02:55:09;94665.56;;;16.92;100.00
35989;BME280;22064;42.672;23.282;2022-07-06T02:57:35;94675.69;;;17.03;100.00
35989;BME280;22064;42.672;23.282;2022-07-06T03:00:01;94673.56;;;17.05;100.00
35989;BME280;22064;42.672;23.282;2022-07-06T03:02:29;94661.97;;;17.06;100.00
35989;BME280;22064;42.672;23.282;2022-07-06T03:04:55;94665.31;;;17.12;100.00
35989;BME280;22064;42.672;23.282;2022-07-06T03:07:22;94667.25;;;17.25;100.00
35989;BME280;22064;42.672;23.282;2022-07-06T03:09:47;94654.34;;;17.29;100.00
35989;BME280;22064;42.672;23.282;2022-07-06T03:12:13;94649.56;;;17.31;100.00
35989;BME280;22064;42.672;23.282;2022-07-06T03:14:39;94662.31;;;17.43;100.00
35989;BME280;22064;42.672;23.282;2022-07-06T03:17:05;94654.78;;;17.36;100.00
35989;BME280;22064;42.672;23.282;2022-07-06T03:19:31;94665.50;;;17.40;100.00
35989;BME280;22064;42.672;23.282;2022-07-06T03:21:57;94664.72;;;17.39;100.00
35989;BME280;22064;42.672;23.282;2022-07-06T03:24:23;94660.81;;;17.37;100.00
35989;BME280;22064;42.672;23.282;2022-07-06T03:26:49;94674.47;;;17.39;100.00
35989;BME280;22064;42.672;23.282;2022-07-06T03:29:14;94659.94;;;17.41;100.00
35989;BME280;22064;42.672;23.282;2022-07-06T03:31:40;94667.56;;;17.43;100.00
35989;BME280;22064;42.672;23.282;2022-07-06T03:34:06;94675.31;;;17.53;100.00
35989;BME280;22064;42.672;23.282;2022-07-06T03:36:32;94677.25;;;17.47;100.00
35989;BME280;22064;42.672;23.282;2022-07-06T03:38:58;94652.63;;;17.38;100.00
35989;BME280;22064;42.672;23.282;2022-07-06T03:41:24;94671.34;;;17.55;100.00
35989;BME280;22064;42.672;23.282;2022-07-06T03:43:50;94677.19;;;17.52;100.00
35989;BME280;22064;42.672;23.282;2022-07-06T03:46:16;94674.34;;;17.49;100.00
35989;BME280;22064;42.672;23.282;2022-07-06T03:48:42;94674.84;;;17.51;100.00
35989;BME280;22064;42.672;23.282;2022-07-06T03:51:08;94685.28;;;17.56;100.00
35989;BME280;22064;42.672;23.282;2022-07-06T03:53:36;94678.16;;;17.57;100.00
35989;BME280;22064;42.672;23.282;2022-07-06T03:56:02;94668.88;;;17.64;100.00
35989;BME280;22064;42.672;23.282;2022-07-06T03:58:46;94671.63;;;17.73;100.00
35989;BME280;22064;42.672;23.282;2022-07-06T04:01:12;94669.97;;;17.82;100.00
35989;BME280;22064;42.672;23.282;2022-07-06T04:03:38;94673.16;;;17.98;100.00
35989;BME280;22064;42.672;23.282;2022-07-06T04:06:04;94669.06;;;18.06;100.00
35989;BME280;22064;42.672;23.282;2022-07-06T04:08:31;94683.72;;;18.12;100.00
35989;BME280;22064;42.672;23.282;2022-07-06T04:10:58;94677.88;;;18.15;100.00
35989;BME280;22064;42.672;23.282;2022-07-06T04:13:23;94672.91;;;18.13;100.00
35989;BME280;22064;42.672;23.282;2022-07-06T04:15:51;94678.28;;;18.22;100.00
35989;BME280;22064;42.672;23.282;2022-07-06T04:18:18;94671.75;;;18.19;100.00
35989;BME280;22064;42.672;23.282;2022-07-06T04:20:50;94673.44;;;18.29;100.00
35989;BME280;22064;42.672;23.282;2022-07-06T04:23:17;94695.84;;;18.45;100.00
35989;BME280;22064;42.672;23.282;2022-07-06T04:25:43;94675.78;;;18.31;100.00
35989;BME280;22064;42.672;23.282;2022-07-06T04:28:10;94689.25;;;18.29;100.00
35989;BME280;22064;42.672;23.282;2022-07-06T04:30:36;94688.09;;;18.35;100.00
35989;BME280;22064;42.672;23.282;2022-07-06T04:33:03;94695.63;;;18.42;100.00
35989;BME280;22064;42.672;23.282;2022-07-06T04:35:31;94703.75;;;18.45;100.00
35989;BME280;22064;42.672;23.282;2022-07-06T04:37:58;94700.91;;;18.42;100.00
35989;BME280;22064;42.672;23.282;2022-07-06T04:40:24;94703.72;;;18.32;100.00
35989;BME280;22064;42.672;23.282;2022-07-06T04:42:54;94710.28;;;18.15;100.00
35989;BME280;22064;42.672;23.282;2022-07-06T04:45:21;94729.22;;;18.17;100.00
35989;BME280;22064;42.672;23.282;2022-07-06T04:47:47;94724.97;;;17.84;100.00
35989;BME280;22064;42.672;23.282;2022-07-06T04:50:13;94755.56;;;17.37;100.00
35989;BME280;22064;42.672;23.282;2022-07-06T04:52:40;94763.84;;;17.49;100.00
35989;BME280;22064;42.672;23.282;2022-07-06T04:55:06;94759.03;;;17.32;100.00
35989;BME280;22064;42.672;23.282;2022-07-06T04:57:34;94769.28;;;17.34;100.00
35989;BME280;22064;42.672;23.282;2022-07-06T05:00:03;94769.09;;;17.25;100.00
35989;BME280;22064;42.672;23.282;2022-07-06T05:02:29;94764.91;;;17.24;100.00
35989;BME280;22064;42.672;23.282;2022-07-06T05:04:55;94754.91;;;17.26;100.00
35989;BME280;22064;42.672;23.282;2022-07-06T05:07:21;94761.09;;;17.35;100.00
35989;BME280;22064;42.672;23.282;2022-07-06T05:09:47;94766.59;;;17.39;100.00
35989;BME280;22064;42.672;23.282;2022-07-06T05:12:13;94773.97;;;17.37;100.00
35989;BME280;22064;42.672;23.282;2022-07-06T05:14:39;94767.03;;;17.46;100.00
35989;BME280;22064;42.672;23.282;2022-07-06T05:17:06;94774.06;;;17.50;100.00
35989;BME280;22064;42.672;23.282;2022-07-06T05:19:32;94776.56;;;17.42;100.00
35989;BME280;22064;42.672;23.282;2022-07-06T05:21:58;94762.38;;;17.38;100.00
35989;BME280;22064;42.672;23.282;2022-07-06T05:24:24;94783.09;;;17.44;100.00
35989;BME280;22064;42.672;23.282;2022-07-06T05:26:50;94775.09;;;17.54;100.00
35989;BME280;22064;42.672;23.282;2022-07-06T05:29:17;94760.06;;;17.55;100.00
35989;BME280;22064;42.672;23.282;2022-07-06T05:31:44;94770.34;;;17.75;100.00
35989;BME280;22064;42.672;23.282;2022-07-06T05:34:10;94765.97;;;17.90;100.00
35989;BME280;22064;42.672;23.282;2022-07-06T05:36:35;94768.41;;;18.05;100.00
35989;BME280;22064;42.672;23.282;2022-07-06T05:39:01;94775.38;;;18.34;100.00
35989;BME280;22064;42.672;23.282;2022-07-06T05:41:27;94769.00;;;18.35;100.00
35989;BME280;22064;42.672;23.282;2022-07-06T05:43:53;94778.56;;;18.31;100.00
35989;BME280;22064;42.672;23.282;2022-07-06T05:46:19;94777.75;;;18.49;100.00
35989;BME280;22064;42.672;23.282;2022-07-06T05:48:45;94777.69;;;18.54;100.00
35989;BME280;22064;42.672;23.282;2022-07-06T05:51:29;94777.41;;;18.56;100.00
35989;BME280;22064;42.672;23.282;2022-07-06T05:53:54;94773.97;;;18.74;100.00
35989;BME280;22064;42.672;23.282;2022-07-06T05:56:21;94776.38;;;18.70;100.00
35989;BME280;22064;42.672;23.282;2022-07-06T05:58:46;94779.94;;;18.80;100.00
35989;BME280;22064;42.672;23.282;2022-07-06T06:01:12;94774.16;;;18.78;100.00
35989;BME280;22064;42.672;23.282;2022-07-06T06:03:40;94774.88;;;18.64;100.00
35989;BME280;22064;42.672;23.282;2022-07-06T06:06:06;94779.75;;;18.57;100.00
35989;BME280;22064;42.672;23.282;2022-07-06T06:08:32;94773.97;;;18.55;100.00
35989;BME280;22064;42.672;23.282;2022-07-06T06:10:59;94781.09;;;18.55;100.00
35989;BME280;22064;42.672;23.282;2022-07-06T06:13:27;94779.97;;;18.61;100.00
35989;BME280;22064;42.672;23.282;2022-07-06T06:15:52;94780.88;;;18.70;100.00
35989;BME280;22064;42.672;23.282;2022-07-06T06:18:18;94766.28;;;18.59;100.00
35989;BME280;22064;42.672;23.282;2022-07-06T06:20:45;94769.63;;;18.64;100.00
35989;BME280;22064;42.672;23.282;2022-07-06T06:23:11;94771.13;;;18.52;100.00
35989;BME280;22064;42.672;23.282;2022-07-06T06:25:38;94786.69;;;18.34;100.00
35989;BME280;22064;42.672;23.282;2022-07-06T06:28:06;94780.72;;;18.29;100.00
35989;BME280;22064;42.672;23.282;2022-07-06T06:30:32;94780.22;;;18.27;100.00
35989;BME280;22064;42.672;23.282;2022-07-06T06:33:15;94779.72;;;18.24;100.00
35989;BME280;22064;42.672;23.282;2022-07-06T06:35:43;94776.34;;;18.38;100.00
35989;BME280;22064;42.672;23.282;2022-07-06T06:38:09;94775.38;;;18.34;100.00
35989;BME280;22064;42.672;23.282;2022-07-06T06:40:35;94780.72;;;18.29;100.00
35989;BME280;22064;42.672;23.282;2022-07-06T06:43:01;94775.06;;;18.54;100.00
35989;BME280;22064;42.672;23.282;2022-07-06T06:45:29;94764.84;;;18.66;100.00
35989;BME280;22064;42.672;23.282;2022-07-06T06:47:54;94761.56;;;18.75;100.00
35989;BME280;22064;42.672;23.282;2022-07-06T06:50:20;94762.28;;;18.94;100.00
35989;BME280;22064;42.672;23.282;2022-07-06T06:52:48;94763.78;;;19.14;100.00
35989;BME280;22064;42.672;23.282;2022-07-06T06:55:13;94779.53;;;19.33;100.00
35989;BME280;22064;42.672;23.282;2022-07-06T06:57:39;94755.53;;;19.15;100.00
35989;BME280;22064;42.672;23.282;2022-07-06T07:00:05;94766.19;;;18.97;100.00
35989;BME280;22064;42.672;23.282;2022-07-06T07:02:31;94758.66;;;18.90;100.00
35989;BME280;22064;42.672;23.282;2022-07-06T07:04:57;94758.38;;;19.05;100.00
35989;BME280;22064;42.672;23.282;2022-07-06T07:07:22;94759.66;;;18.94;100.00
35989;BME280;22064;42.672;23.282;2022-07-06T07:09:48;94761.78;;;19.06;100.00
35989;BME280;22064;42.672;23.282;2022-07-06T07:12:13;94774.22;;;18.91;100.00
35989;BME280;22064;42.672;23.282;2022-07-06T07:14:40;94764.38;;;18.78;100.00
35989;BME280;22064;42.672;23.282;2022-07-06T07:17:06;94767.13;;;18.73;100.00
35989;BME280;22064;42.672;23.282;2022-07-06T07:19:32;94770.75;;;18.77;100.00
35989;BME280;22064;42.672;23.282;2022-07-06T07:21:57;94776.53;;;18.79;100.00
35989;BME280;22064;42.672;23.282;2022-07-06T07:24:23;94757.19;;;18.84;100.00
35989;BME280;22064;42.672;23.282;2022-07-06T07:26:48;94760.44;;;19.08;100.00
35989;BME280;22064;42.672;23.282;2022-07-06T07:29:14;94758.78;;;19.26;100.00
35989;BME280;22064;42.672;23.282;2022-07-06T07:31:39;94759.75;;;19.30;100.00
35989;BME280;22064;42.672;23.282;2022-07-06T07:34:05;94737.47;;;19.36;100.00
35989;BME280;22064;42.672;23.282;2022-07-06T07:36:31;94762.41;;;19.58;100.00
35989;BME280;22064;42.672;23.282;2022-07-06T07:38:56;94769.94;;;19.51;100.00
35989;BME280;22064;42.672;23.282;2022-07-06T07:41:22;94756.75;;;19.51;100.00
35989;BME280;22064;42.672;23.282;2022-07-06T07:43:47;94753.97;;;19.56;100.00
35989;BME280;22064;42.672;23.282;2022-07-06T07:46:13;94772.28;;;19.52;100.00
35989;BME280;22064;42.672;23.282;2022-07-06T07:48:38;94764.38;;;19.66;100.00
35989;BME280;22064;42.672;23.282;2022-07-06T07:51:05;94751.91;;;19.80;100.00
35989;BME280;22064;42.672;23.282;2022-07-06T07:53:30;94760.47;;;20.00;100.00
35989;BME280;22064;42.672;23.282;2022-07-06T07:55:56;94753.63;;;20.13;100.00
35989;BME280;22064;42.672;23.282;2022-07-06T07:58:21;94752.69;;;20.17;100.00
35989;BME280;22064;42.672;23.282;2022-07-06T08:00:47;94750.72;;;20.00;100.00
35989;BME280;22064;42.672;23.282;2022-07-06T08:03:13;94764.97;;;20.36;100.00
35989;BME280;22064;42.672;23.282;2022-07-06T08:05:38;94759.84;;;20.17;100.00
35989;BME280;22064;42.672;23.282;2022-07-06T08:08:04;94750.72;;;20.00;100.00
35989;BME280;22064;42.672;23.282;2022-07-06T08:10:30;94752.72;;;20.40;100.00
35989;BME280;22064;42.672;23.282;2022-07-06T08:12:56;94749.00;;;20.41;100.00
35989;BME280;22064;42.672;23.282;2022-07-06T08:15:22;94747.81;;;20.69;100.00
35989;BME280;22064;42.672;23.282;2022-07-06T08:17:47;94757.84;;;21.12;100.00
35989;BME280;22064;42.672;23.282;2022-07-06T08:20:14;94762.56;;;20.93;100.00
35989;BME280;22064;42.672;23.282;2022-07-06T08:22:41;94748.09;;;20.45;100.00
35989;BME280;22064;42.672;23.282;2022-07-06T08:25:07;94743.03;;;20.80;100.00
35989;BME280;22064;42.672;23.282;2022-07-06T08:27:33;94752.72;;;21.16;100.00
35989;BME280;22064;42.672;23.282;2022-07-06T08:29:59;94750.06;;;21.16;100.00
35989;BME280;22064;42.672;23.282;2022-07-06T08:32:26;94744.59;;;21.61;100.00
35989;BME280;22064;42.672;23.282;2022-07-06T08:34:51;94737.63;;;21.82;100.00
35989;BME280;22064;42.672;23.282;2022-07-06T08:37:18;94745.69;;;21.51;100.00
35989;BME280;22064;42.672;23.282;2022-07-06T08:39:44;94746.78;;;21.50;100.00
35989;BME280;22064;42.672;23.282;2022-07-06T08:42:11;94738.09;;;21.27;100.00
35989;BME280;22064;42.672;23.282;2022-07-06T08:44:38;94746.53;;;21.78;100.00
35989;BME280;22064;42.672;23.282;2022-07-06T08:47:06;94754.59;;;21.24;100.00
35989;BME280;22064;42.672;23.282;2022-07-06T08:49:36;94744.31;;;21.80;100.00
35989;BME280;22064;42.672;23.282;2022-07-06T08:52:03;94751.91;;;21.55;100.00
35989;BME280;22064;42.672;23.282;2022-07-06T08:54:29;94763.91;;;21.44;100.00
35989;BME280;22064;42.672;23.282;2022-07-06T08:56:55;94746.44;;;21.43;100.00
35989;BME280;22064;42.672;23.282;2022-07-06T08:59:21;94745.91;;;21.81;100.00
35989;BME280;22064;42.672;23.282;2022-07-06T09:01:46;94748.25;;;22.08;100.00
35989;BME280;22064;42.672;23.282;2022-07-06T09:04:13;94737.34;;;22.45;100.00
35989;BME280;22064;42.672;23.282;2022-07-06T09:06:42;94747.34;;;22.48;100.00
35989;BME280;22064;42.672;23.282;2022-07-06T09:09:09;94746.13;;;22.28;100.00
35989;BME280;22064;42.672;23.282;2022-07-06T09:11:35;94765.78;;;22.18;100.00
35989;BME280;22064;42.672;23.282;2022-07-06T09:14:03;94746.94;;;21.54;100.00
35989;BME280;22064;42.672;23.282;2022-07-06T09:16:29;94740.75;;;21.76;100.00
35989;BME280;22064;42.672;23.282;2022-07-06T09:18:56;94738.16;;;22.19;100.00
35989;BME280;22064;42.672;23.282;2022-07-06T09:21:29;94755.13;;;22.09;100.00
35989;BME280;22064;42.672;23.282;2022-07-06T09:23:59;94732.91;;;21.62;100.00
35989;BME280;22064;42.672;23.282;2022-07-06T09:26:26;94749.50;;;21.94;100.00
35989;BME280;22064;42.672;23.282;2022-07-06T09:28:52;94743.75;;;22.09;100.00
35989;BME280;22064;42.672;23.282;2022-07-06T09:31:19;94762.44;;;21.78;100.00
35989;BME280;22064;42.672;23.282;2022-07-06T09:33:55;94749.09;;;21.52;100.00
35989;BME280;22064;42.672;23.282;2022-07-06T09:36:47;94749.31;;;21.73;100.00
35989;BME280;22064;42.672;23.282;2022-07-06T09:41:52;94740.72;;;21.67;100.00
35989;BME280;22064;42.672;23.282;2022-07-06T09:44:31;94758.84;;;21.91;100.00
35989;BME280;22064;42.672;23.282;2022-07-06T09:47:02;94705.66;;;21.79;100.00
35989;BME280;22064;42.672;23.282;2022-07-06T09:49:28;94736.22;;;21.59;100.00
35989;BME280;22064;42.672;23.282;2022-07-06T09:51:57;94745.34;;;21.44;100.00
35989;BME280;22064;42.672;23.282;2022-07-06T09:54:23;94727.47;;;21.50;100.00
35989;BME280;22064;42.672;23.282;2022-07-06T09:56:51;94739.03;;;21.80;100.00
35989;BME280;22064;42.672;23.282;2022-07-06T09:59:28;94731.88;;;21.89;100.00
35989;BME280;22064;42.672;23.282;2022-07-06T10:01:56;94736.03;;;21.64;100.00
35989;BME280;22064;42.672;23.282;2022-07-06T10:04:23;94759.75;;;21.69;100.00
35989;BME280;22064;42.672;23.282;2022-07-06T10:06:49;94749.88;;;21.52;100.00
35989;BME280;22064;42.672;23.282;2022-07-06T10:09:15;94730.09;;;21.50;100.00
35989;BME280;22064;42.672;23.282;2022-07-06T10:14:21;94735.25;;;21.63;100.00
35989;BME280;22064;42.672;23.282;2022-07-06T10:16:48;94723.91;;;21.89;100.00
35989;BME280;22064;42.672;23.282;2022-07-06T10:19:17;94725.34;;;22.39;100.00
35989;BME280;22064;42.672;23.282;2022-07-06T10:21:44;94724.28;;;22.22;100.00
35989;BME280;22064;42.672;23.282;2022-07-06T10:24:10;94705.84;;;22.17;100.00
35989;BME280;22064;42.672;23.282;2022-07-06T10:26:38;94734.53;;;22.15;100.00
35989;BME280;22064;42.672;23.282;2022-07-06T10:29:05;94720.38;;;22.20;100.00
35989;BME280;22064;42.672;23.282;2022-07-06T10:31:32;94718.63;;;22.50;100.00
35989;BME280;22064;42.672;23.282;2022-07-06T10:34:04;94716.13;;;22.27;100.00
35989;BME280;22064;42.672;23.282;2022-07-06T10:36:30;94714.09;;;22.33;100.00
35989;BME280;22064;42.672;23.282;2022-07-06T10:38:57;94693.97;;;22.14;100.00
35989;BME280;22064;42.672;23.282;2022-07-06T10:41:33;94687.22;;;22.60;100.00
35989;BME280;22064;42.672;23.282;2022-07-06T10:44:15;94705.44;;;22.79;100.00
35989;BME280;22064;42.672;23.282;2022-07-06T10:46:49;94705.41;;;22.88;100.00
35989;BME280;22064;42.672;23.282;2022-07-06T10:49:15;94715.00;;;22.54;100.00
35989;BME280;22064;42.672;23.282;2022-07-06T10:51:41;94703.63;;;22.63;100.00
35989;BME280;22064;42.672;23.282;2022-07-06T10:54:08;94710.97;;;23.13;100.00
35989;BME280;22064;42.672;23.282;2022-07-06T10:57:00;94707.25;;;22.49;100.00
35989;BME280;22064;42.672;23.282;2022-07-06T10:59:33;94712.81;;;22.65;100.00
35989;BME280;22064;42.672;23.282;2022-07-06T11:02:15;94704.16;;;22.86;100.00
35989;BME280;22064;42.672;23.282;2022-07-06T11:04:46;94709.47;;;22.94;100.00
35989;BME280;22064;42.672;23.282;2022-07-06T11:07:19;94711.72;;;23.22;100.00
35989;BME280;22064;42.672;23.282;2022-07-06T11:09:56;94709.88;;;23.05;100.00
35989;BME280;22064;42.672;23.282;2022-07-06T11:12:22;94710.44;;;23.28;100.00
35989;BME280;22064;42.672;23.282;2022-07-06T11:14:49;94710.56;;;22.93;100.00
35989;BME280;22064;42.672;23.282;2022-07-06T11:17:15;94703.25;;;22.73;100.00
35989;BME280;22064;42.672;23.282;2022-07-06T11:19:56;94697.81;;;23.16;100.00
35989;BME280;22064;42.672;23.282;2022-07-06T11:22:22;94696.13;;;23.41;100.00
35989;BME280;22064;42.672;23.282;2022-07-06T11:24:50;94701.78;;;23.40;100.00
35989;BME280;22064;42.672;23.282;2022-07-06T11:27:17;94688.06;;;22.91;100.00
35989;BME280;22064;42.672;23.282;2022-07-06T11:29:42;94700.72;;;22.94;100.00
35989;BME280;22064;42.672;23.282;2022-07-06T11:32:11;94702.66;;;23.14;100.00
35989;BME280;22064;42.672;23.282;2022-07-06T11:34:43;94690.38;;;22.92;100.00
35989;BME280;22064;42.672;23.282;2022-07-06T11:37:14;94696.09;;;22.65;100.00
35989;BME280;22064;42.672;23.282;2022-07-06T11:39:41;94678.44;;;22.77;100.00
35989;BME280;22064;42.672;23.282;2022-07-06T11:42:12;94681.41;;;23.14;100.00
35989;BME280;22064;42.672;23.282;2022-07-06T11:44:39;94680.19;;;23.12;100.00
35989;BME280;22064;42.672;23.282;2022-07-06T11:47:07;94698.06;;;23.32;100.00
35989;BME280;22064;42.672;23.282;2022-07-06T11:49:35;94693.50;;;23.33;100.00
35989;BME280;22064;42.672;23.282;2022-07-06T11:52:11;94676.19;;;23.26;100.00
35989;BME280;22064;42.672;23.282;2022-07-06T11:54:38;94663.16;;;23.13;100.00
35989;BME280;22064;42.672;23.282;2022-07-06T11:57:04;94660.56;;;22.95;100.00
35989;BME280;22064;42.672;23.282;2022-07-06T11:59:35;94652.50;;;23.21;100.00
35989;BME280;22064;42.672;23.282;2022-07-06T12:02:12;94666.63;;;23.85;100.00
35989;BME280;22064;42.672;23.282;2022-07-06T12:04:42;94663.16;;;23.63;100.00
35989;BME280;22064;42.672;23.282;2022-07-06T12:07:13;94662.44;;;23.84;100.00
35989;BME280;22064;42.672;23.282;2022-07-06T12:09:44;94646.63;;;24.20;100.00
35989;BME280;22064;42.672;23.282;2022-07-06T12:12:11;94675.34;;;24.27;100.00
35989;BME280;22064;42.672;23.282;2022-07-06T12:14:39;94659.06;;;24.29;100.00
35989;BME280;22064;42.672;23.282;2022-07-06T12:19:32;94676.41;;;23.42;100.00
35989;BME280;22064;42.672;23.282;2022-07-06T12:21:58;94672.53;;;23.90;100.00
35989;BME280;22064;42.672;23.282;2022-07-06T12:24:26;94672.72;;;23.85;100.00
35989;BME280;22064;42.672;23.282;2022-07-06T12:26:54;94667.81;;;23.45;100.00
35989;BME280;22064;42.672;23.282;2022-07-06T12:29:21;94674.66;;;23.25;100.00
35989;BME280;22064;42.672;23.282;2022-07-06T12:34:20;94669.25;;;23.13;100.00
35989;BME280;22064;42.672;23.282;2022-07-06T12:36:57;94658.06;;;23.28;100.00
35989;BME280;22064;42.672;23.282;2022-07-06T12:39:24;94663.22;;;23.34;100.00
35989;BME280;22064;42.672;23.282;2022-07-06T12:44:23;94652.91;;;23.32;100.00
35989;BME280;22064;42.672;23.282;2022-07-06T12:46:50;94674.06;;;23.49;100.00
35989;BME280;22064;42.672;23.282;2022-07-06T12:49:17;94645.78;;;23.45;100.00
35989;BME280;22064;42.672;23.282;2022-07-06T12:54:21;94648.25;;;23.50;100.00
35989;BME280;22064;42.672;23.282;2022-07-06T12:59:37;94641.59;;;23.86;100.00